sensor_id;sensor_type;location;lat;lon;timestamp;P1;durP1;ratioP1;P2;durP2;ratioP2
64868;SDS011;51349;52.424;10.840;2023-11-18T00:00:19;7.93;;;3.90;;
64868;SDS011;51349;52.424;10.840;2023-11-18T00:05:20;4.00;;;3.43;;
64868;SDS011;51349;52.424;10.840;2023-11-18T00:10:21;4.63;;;3.10;;
64868;SDS011;51349;52.424;10.840;2023-11-18T00:15:23;4.17;;;3.77;;
64868;SDS011;51349;52.424;10.840;2023-11-18T00:20:24;4.07;;;3.67;;
64868;SDS011;51349;52.424;10.840;2023-11-18T00:25:25;4.20;;;3.80;;
64868;SDS011;51349;52.424;10.840;2023-11-18T00:30:28;5.73;;;4.20;;
64868;SDS011;51349;52.424;10.840;2023-11-18T00:35:28;6.73;;;4.90;;
64868;SDS011;51349;52.424;10.840;2023-11-18T00:40:32;10.00;;;7.10;;
64868;SDS011;51349;52.424;10.840;2023-11-18T00:45:32;4.63;;;4.20;;
64868;SDS011;51349;52.424;10.840;2023-11-18T00:50:33;5.23;;;4.40;;
64868;SDS011;51349;52.424;10.840;2023-11-18T00:55:34;7.23;;;3.57;;
64868;SDS011;51349;52.424;10.840;2023-11-18T01:00:34;3.90;;;3.60;;
64868;SDS011;51349;52.424;10.840;2023-11-18T01:05:36;3.77;;;3.30;;
64868;SDS011;51349;52.424;10.840;2023-11-18T01:10:37;4.23;;;3.47;;
64868;SDS011;51349;52.424;10.840;2023-11-18T01:15:38;3.63;;;3.30;;
64868;SDS011;51349;52.424;10.840;2023-11-18T01:20:39;4.23;;;3.53;;
64868;SDS011;51349;52.424;10.840;2023-11-18T01:25:39;4.70;;;3.73;;
64868;SDS011;51349;52.424;10.840;2023-11-18T01:30:40;4.20;;;3.53;;
64868;SDS011;51349;52.424;10.840;2023-11-18T01:35:42;3.93;;;3.63;;
64868;SDS011;51349;52.424;10.840;2023-11-18T01:40:43;4.10;;;3.70;;
64868;SDS011;51349;52.424;10.840;2023-11-18T01:45:44;3.93;;;3.57;;
64868;SDS011;51349;52.424;10.840;2023-11-18T01:50:46;4.13;;;3.47;;
64868;SDS011;51349;52.424;10.840;2023-11-18T01:55:47;3.87;;;3.13;;
64868;SDS011;51349;52.424;10.840;2023-11-18T02:00:49;3.97;;;3.23;;
64868;SDS011;51349;52.424;10.840;2023-11-18T02:05:51;5.10;;;3.63;;
64868;SDS011;51349;52.424;10.840;2023-11-18T02:10:57;4.80;;;3.50;;
64868;SDS011;51349;52.424;10.840;2023-11-18T02:16:11;3.70;;;3.30;;
64868;SDS011;51349;52.424;10.840;2023-11-18T02:21:12;4.10;;;3.40;;
64868;SDS011;51349;52.424;10.840;2023-11-18T02:26:20;4.20;;;3.10;;
64868;SDS011;51349;52.424;10.840;2023-11-18T02:31:23;7.77;;;3.47;;
64868;SDS011;51349;52.424;10.840;2023-11-18T02:36:34;4.03;;;3.63;;
64868;SDS011;51349;52.424;10.840;2023-11-18T02:41:39;4.77;;;3.63;;
64868;SDS011;51349;52.424;10.840;2023-11-18T02:46:42;3.90;;;3.60;;
64868;SDS011;51349;52.424;10.840;2023-11-18T02:51:43;5.70;;;3.53;;
64868;SDS011;51349;52.424;10.840;2023-11-18T02:56:47;9.27;;;4.23;;
64868;SDS011;51349;52.424;10.840;2023-11-18T03:01:48;3.90;;;3.50;;
64868;SDS011;51349;52.424;10.840;2023-11-18T03:06:54;4.50;;;3.90;;
64868;SDS011;51349;52.424;10.840;2023-11-18T03:11:55;4.40;;;4.00;;
64868;SDS011;51349;52.424;10.840;2023-11-18T03:16:56;8.93;;;4.10;;
64868;SDS011;51349;52.424;10.840;2023-11-18T03:21:58;4.30;;;3.90;;
64868;SDS011;51349;52.424;10.840;2023-11-18T03:26:58;4.43;;;3.90;;
64868;SDS011;51349;52.424;10.840;2023-11-18T03:31:59;3.97;;;3.60;;
64868;SDS011;51349;52.424;10.840;2023-11-18T03:37:00;3.80;;;3.43;;
64868;SDS011;51349;52.424;10.840;2023-11-18T03:42:00;4.07;;;3.67;;
64868;SDS011;51349;52.424;10.840;2023-11-18T03:47:01;6.83;;;3.33;;
64868;SDS011;51349;52.424;10.840;2023-11-18T03:52:03;4.30;;;3.67;;
64868;SDS011;51349;52.424;10.840;2023-11-18T03:57:04;4.13;;;3.63;;
64868;SDS011;51349;52.424;10.840;2023-11-18T04:02:05;4.37;;;3.97;;
64868;SDS011;51349;52.424;10.840;2023-11-18T04:07:06;4.97;;;3.63;;
64868;SDS011;51349;52.424;10.840;2023-11-18T04:12:07;4.07;;;3.60;;
64868;SDS011;51349;52.424;10.840;2023-11-18T04:17:08;4.10;;;3.57;;
64868;SDS011;51349;52.424;10.840;2023-11-18T04:22:08;8.37;;;3.80;;
64868;SDS011;51349;52.424;10.840;2023-11-18T04:27:09;3.97;;;3.57;;
64868;SDS011;51349;52.424;10.840;2023-11-18T04:32:10;4.53;;;3.70;;
64868;SDS011;51349;52.424;10.840;2023-11-18T04:37:14;4.80;;;3.70;;
64868;SDS011;51349;52.424;10.840;2023-11-18T04:42:15;5.60;;;3.90;;
64868;SDS011;51349;52.424;10.840;2023-11-18T04:47:15;3.70;;;3.30;;
64868;SDS011;51349;52.424;10.840;2023-11-18T04:52:18;3.63;;;3.23;;
64868;SDS011;51349;52.424;10.840;2023-11-18T04:57:19;4.40;;;3.70;;
64868;SDS011;51349;52.424;10.840;2023-11-18T05:02:19;4.23;;;3.80;;
64868;SDS011;51349;52.424;10.840;2023-11-18T05:07:20;4.53;;;3.63;;
64868;SDS011;51349;52.424;10.840;2023-11-18T05:12:21;5.00;;;3.80;;
64868;SDS011;51349;52.424;10.840;2023-11-18T05:17:22;5.10;;;3.93;;
64868;SDS011;51349;52.424;10.840;2023-11-18T05:22:23;6.13;;;4.90;;
64868;SDS011;51349;52.424;10.840;2023-11-18T05:27:24;4.17;;;3.77;;
64868;SDS011;51349;52.424;10.840;2023-11-18T05:32:27;5.03;;;3.87;;
64868;SDS011;51349;52.424;10.840;2023-11-18T05:37:28;3.90;;;3.50;;
64868;SDS011;51349;52.424;10.840;2023-11-18T05:42:29;4.97;;;3.77;;
64868;SDS011;51349;52.424;10.840;2023-11-18T05:47:30;5.67;;;3.50;;
64868;SDS011;51349;52.424;10.840;2023-11-18T05:52:31;3.90;;;3.50;;
64868;SDS011;51349;52.424;10.840;2023-11-18T05:57:32;5.13;;;3.73;;
64868;SDS011;51349;52.424;10.840;2023-11-18T06:02:33;3.63;;;3.33;;
64868;SDS011;51349;52.424;10.840;2023-11-18T06:07:36;4.30;;;3.63;;
64868;SDS011;51349;52.424;10.840;2023-11-18T06:12:37;3.80;;;3.13;;
64868;SDS011;51349;52.424;10.840;2023-11-18T06:17:40;4.40;;;3.60;;
64868;SDS011;51349;52.424;10.840;2023-11-18T06:22:45;4.63;;;3.53;;
64868;SDS011;51349;52.424;10.840;2023-11-18T06:27:46;4.33;;;3.93;;
64868;SDS011;51349;52.424;10.840;2023-11-18T06:32:47;5.57;;;3.23;;
64868;SDS011;51349;52.424;10.840;2023-11-18T06:37:48;3.73;;;3.43;;
64868;SDS011;51349;52.424;10.840;2023-11-18T06:42:49;3.43;;;3.10;;
64868;SDS011;51349;52.424;10.840;2023-11-18T06:47:50;4.00;;;3.70;;
64868;SDS011;51349;52.424;10.840;2023-11-18T06:52:50;4.90;;;3.63;;
64868;SDS011;51349;52.424;10.840;2023-11-18T06:57:51;6.63;;;4.27;;
64868;SDS011;51349;52.424;10.840;2023-11-18T07:02:52;7.30;;;4.00;;
64868;SDS011;51349;52.424;10.840;2023-11-18T07:07:57;4.37;;;3.50;;
64868;SDS011;51349;52.424;10.840;2023-11-18T07:12:58;5.57;;;4.73;;
64868;SDS011;51349;52.424;10.840;2023-11-18T07:18:02;7.60;;;5.80;;
64868;SDS011;51349;52.424;10.840;2023-11-18T07:23:03;7.33;;;5.23;;
64868;SDS011;51349;52.424;10.840;2023-11-18T07:28:10;4.73;;;4.23;;
64868;SDS011;51349;52.424;10.840;2023-11-18T07:33:15;5.30;;;4.33;;
64868;SDS011;51349;52.424;10.840;2023-11-18T07:38:19;4.70;;;4.20;;
64868;SDS011;51349;52.424;10.840;2023-11-18T07:43:20;7.37;;;4.70;;
64868;SDS011;51349;52.424;10.840;2023-11-18T07:48:24;5.43;;;4.50;;
64868;SDS011;51349;52.424;10.840;2023-11-18T07:53:25;5.53;;;4.73;;
64868;SDS011;51349;52.424;10.840;2023-11-18T07:58:33;6.20;;;5.27;;
64868;SDS011;51349;52.424;10.840;2023-11-18T08:03:42;5.90;;;5.30;;
64868;SDS011;51349;52.424;10.840;2023-11-18T08:08:48;6.60;;;5.23;;
64868;SDS011;51349;52.424;10.840;2023-11-18T08:13:49;8.30;;;6.30;;
64868;SDS011;51349;52.424;10.840;2023-11-18T08:18:49;7.00;;;5.67;;
64868;SDS011;51349;52.424;10.840;2023-11-18T08:23:50;8.40;;;5.97;;
64868;SDS011;51349;52.424;10.840;2023-11-18T08:28:51;7.00;;;5.80;;
64868;SDS011;51349;52.424;10.840;2023-11-18T08:33:52;6.70;;;5.70;;
64868;SDS011;51349;52.424;10.840;2023-11-18T08:38:54;8.67;;;6.23;;
64868;SDS011;51349;52.424;10.840;2023-11-18T08:43:56;12.00;;;8.17;;
64868;SDS011;51349;52.424;10.840;2023-11-18T08:48:57;13.90;;;9.33;;
64868;SDS011;51349;52.424;10.840;2023-11-18T08:53:58;13.10;;;8.67;;
64868;SDS011;51349;52.424;10.840;2023-11-18T08:58:58;13.27;;;8.57;;
64868;SDS011;51349;52.424;10.840;2023-11-18T09:03:59;7.60;;;6.30;;
64868;SDS011;51349;52.424;10.840;2023-11-18T09:09:01;9.83;;;7.07;;
64868;SDS011;51349;52.424;10.840;2023-11-18T09:14:06;13.07;;;7.93;;
64868;SDS011;51349;52.424;10.840;2023-11-18T09:19:07;10.73;;;7.20;;
64868;SDS011;51349;52.424;10.840;2023-11-18T09:24:09;13.93;;;8.30;;
64868;SDS011;51349;52.424;10.840;2023-11-18T09:29:13;16.10;;;9.20;;
64868;SDS011;51349;52.424;10.840;2023-11-18T09:34:18;19.83;;;9.67;;
64868;SDS011;51349;52.424;10.840;2023-11-18T09:39:26;29.23;;;11.80;;
64868;SDS011;51349;52.424;10.840;2023-11-18T09:44:37;23.20;;;11.03;;
64868;SDS011;51349;52.424;10.840;2023-11-18T09:49:40;22.47;;;11.60;;
64868;SDS011;51349;52.424;10.840;2023-11-18T10:00:05;16.40;;;9.90;;
64868;SDS011;51349;52.424;10.840;2023-11-18T10:05:20;19.43;;;11.20;;
64868;SDS011;51349;52.424;10.840;2023-11-18T10:10:22;24.97;;;12.43;;
64868;SDS011;51349;52.424;10.840;2023-11-18T10:15:24;20.73;;;11.87;;
64868;SDS011;51349;52.424;10.840;2023-11-18T10:25:45;16.63;;;11.87;;
64868;SDS011;51349;52.424;10.840;2023-11-18T10:31:01;16.80;;;11.27;;
64868;SDS011;51349;52.424;10.840;2023-11-18T10:36:05;14.53;;;10.70;;
64868;SDS011;51349;52.424;10.840;2023-11-18T10:41:19;19.23;;;11.30;;
64868;SDS011;51349;52.424;10.840;2023-11-18T10:46:20;17.00;;;10.63;;
64868;SDS011;51349;52.424;10.840;2023-11-18T10:51:22;19.60;;;12.07;;
64868;SDS011;51349;52.424;10.840;2023-11-18T10:56:26;20.27;;;13.27;;
64868;SDS011;51349;52.424;10.840;2023-11-18T11:01:32;23.17;;;14.27;;
64868;SDS011;51349;52.424;10.840;2023-11-18T11:06:34;22.50;;;14.93;;
64868;SDS011;51349;52.424;10.840;2023-11-18T11:11:39;23.17;;;13.40;;
64868;SDS011;51349;52.424;10.840;2023-11-18T11:16:55;20.07;;;14.07;;
64868;SDS011;51349;52.424;10.840;2023-11-18T11:22:04;25.00;;;15.23;;
64868;SDS011;51349;52.424;10.840;2023-11-18T11:27:41;25.90;;;17.43;;
64868;SDS011;51349;52.424;10.840;2023-11-18T11:32:48;17.60;;;13.03;;
64868;SDS011;51349;52.424;10.840;2023-11-18T11:37:52;20.63;;;13.47;;
64868;SDS011;51349;52.424;10.840;2023-11-18T11:42:55;18.23;;;12.30;;
64868;SDS011;51349;52.424;10.840;2023-11-18T11:47:57;16.33;;;11.80;;
64868;SDS011;51349;52.424;10.840;2023-11-18T11:53:27;17.23;;;11.80;;
64868;SDS011;51349;52.424;10.840;2023-11-18T11:58:36;19.00;;;12.17;;
64868;SDS011;51349;52.424;10.840;2023-11-18T12:03:40;16.07;;;11.83;;
64868;SDS011;51349;52.424;10.840;2023-11-18T12:08:43;17.23;;;12.03;;
64868;SDS011;51349;52.424;10.840;2023-11-18T12:14:03;18.87;;;12.53;;
64868;SDS011;51349;52.424;10.840;2023-11-18T12:19:35;16.13;;;11.07;;
64868;SDS011;51349;52.424;10.840;2023-11-18T12:25:28;19.30;;;11.63;;
64868;SDS011;51349;52.424;10.840;2023-11-18T12:35:22;20.73;;;13.50;;
64868;SDS011;51349;52.424;10.840;2023-11-18T12:40:29;18.83;;;13.20;;
64868;SDS011;51349;52.424;10.840;2023-11-18T12:45:44;21.67;;;13.57;;
64868;SDS011;51349;52.424;10.840;2023-11-18T12:51:14;19.53;;;13.87;;
64868;SDS011;51349;52.424;10.840;2023-11-18T12:56:19;16.97;;;12.63;;
64868;SDS011;51349;52.424;10.840;2023-11-18T13:01:21;17.30;;;12.47;;
64868;SDS011;51349;52.424;10.840;2023-11-18T13:06:22;18.87;;;13.50;;
64868;SDS011;51349;52.424;10.840;2023-11-18T13:11:28;20.13;;;13.63;;
64868;SDS011;51349;52.424;10.840;2023-11-18T13:16:29;19.30;;;12.70;;
64868;SDS011;51349;52.424;10.840;2023-11-18T13:21:30;22.27;;;13.60;;
64868;SDS011;51349;52.424;10.840;2023-11-18T13:26:31;19.57;;;13.83;;
64868;SDS011;51349;52.424;10.840;2023-11-18T13:31:33;21.07;;;13.90;;
64868;SDS011;51349;52.424;10.840;2023-11-18T13:36:34;19.87;;;14.13;;
64868;SDS011;51349;52.424;10.840;2023-11-18T13:41:37;22.37;;;14.13;;
64868;SDS011;51349;52.424;10.840;2023-11-18T13:46:38;20.23;;;13.07;;
64868;SDS011;51349;52.424;10.840;2023-11-18T13:51:43;17.40;;;12.53;;
64868;SDS011;51349;52.424;10.840;2023-11-18T13:56:44;19.13;;;12.80;;
64868;SDS011;51349;52.424;10.840;2023-11-18T14:01:45;15.73;;;11.90;;
64868;SDS011;51349;52.424;10.840;2023-11-18T14:06:49;18.27;;;12.90;;
64868;SDS011;51349;52.424;10.840;2023-11-18T14:11:56;21.53;;;14.33;;
64868;SDS011;51349;52.424;10.840;2023-11-18T14:16:57;21.60;;;13.73;;
64868;SDS011;51349;52.424;10.840;2023-11-18T14:21:58;17.27;;;13.13;;
64868;SDS011;51349;52.424;10.840;2023-11-18T14:27:00;23.07;;;13.00;;
64868;SDS011;51349;52.424;10.840;2023-11-18T14:32:00;19.57;;;12.70;;
64868;SDS011;51349;52.424;10.840;2023-11-18T14:37:01;16.90;;;11.60;;
64868;SDS011;51349;52.424;10.840;2023-11-18T14:42:02;14.93;;;11.97;;
64868;SDS011;51349;52.424;10.840;2023-11-18T14:47:04;16.53;;;11.40;;
64868;SDS011;51349;52.424;10.840;2023-11-18T14:52:06;16.47;;;12.27;;
64868;SDS011;51349;52.424;10.840;2023-11-18T14:57:07;15.97;;;11.53;;
64868;SDS011;51349;52.424;10.840;2023-11-18T15:02:08;16.37;;;10.77;;
64868;SDS011;51349;52.424;10.840;2023-11-18T15:07:09;16.57;;;12.33;;
64868;SDS011;51349;52.424;10.840;2023-11-18T15:12:10;18.13;;;12.80;;
64868;SDS011;51349;52.424;10.840;2023-11-18T15:17:11;15.47;;;10.97;;
64868;SDS011;51349;52.424;10.840;2023-11-18T15:22:13;14.50;;;10.87;;
64868;SDS011;51349;52.424;10.840;2023-11-18T15:27:14;14.90;;;10.50;;
64868;SDS011;51349;52.424;10.840;2023-11-18T15:32:16;14.53;;;10.50;;
64868;SDS011;51349;52.424;10.840;2023-11-18T15:37:17;15.17;;;9.83;;
64868;SDS011;51349;52.424;10.840;2023-11-18T15:42:17;13.00;;;9.13;;
64868;SDS011;51349;52.424;10.840;2023-11-18T15:47:18;12.63;;;9.73;;
64868;SDS011;51349;52.424;10.840;2023-11-18T15:52:19;12.53;;;9.50;;
64868;SDS011;51349;52.424;10.840;2023-11-18T15:57:20;17.40;;;9.70;;
64868;SDS011;51349;52.424;10.840;2023-11-18T16:02:23;11.83;;;7.90;;
64868;SDS011;51349;52.424;10.840;2023-11-18T16:07:24;11.37;;;7.97;;
64868;SDS011;51349;52.424;10.840;2023-11-18T16:12:28;8.23;;;7.10;;
64868;SDS011;51349;52.424;10.840;2023-11-18T16:17:29;13.50;;;9.90;;
64868;SDS011;51349;52.424;10.840;2023-11-18T16:22:29;7.20;;;6.33;;
64868;SDS011;51349;52.424;10.840;2023-11-18T16:27:30;7.10;;;5.60;;
64868;SDS011;51349;52.424;10.840;2023-11-18T16:32:31;8.20;;;5.97;;
64868;SDS011;51349;52.424;10.840;2023-11-18T16:37:32;8.50;;;5.47;;
64868;SDS011;51349;52.424;10.840;2023-11-18T16:42:32;7.10;;;5.87;;
64868;SDS011;51349;52.424;10.840;2023-11-18T16:47:33;9.23;;;6.40;;
64868;SDS011;51349;52.424;10.840;2023-11-18T16:52:36;8.27;;;6.50;;
64868;SDS011;51349;52.424;10.840;2023-11-18T16:57:39;7.53;;;6.63;;
64868;SDS011;51349;52.424;10.840;2023-11-18T17:02:46;13.47;;;8.57;;
64868;SDS011;51349;52.424;10.840;2023-11-18T17:07:55;10.73;;;7.63;;
64868;SDS011;51349;52.424;10.840;2023-11-18T17:12:56;8.23;;;7.10;;
64868;SDS011;51349;52.424;10.840;2023-11-18T17:17:58;8.60;;;7.60;;
64868;SDS011;51349;52.424;10.840;2023-11-18T17:23:01;10.30;;;7.00;;
64868;SDS011;51349;52.424;10.840;2023-11-18T17:28:02;9.97;;;7.57;;
64868;SDS011;51349;52.424;10.840;2023-11-18T17:33:04;9.03;;;7.40;;
64868;SDS011;51349;52.424;10.840;2023-11-18T17:38:05;10.07;;;7.30;;
64868;SDS011;51349;52.424;10.840;2023-11-18T17:43:05;12.77;;;8.30;;
64868;SDS011;51349;52.424;10.840;2023-11-18T17:48:06;10.23;;;7.97;;
64868;SDS011;51349;52.424;10.840;2023-11-18T17:53:08;8.37;;;7.40;;
64868;SDS011;51349;52.424;10.840;2023-11-18T17:58:09;8.63;;;7.20;;
64868;SDS011;51349;52.424;10.840;2023-11-18T18:03:10;8.20;;;6.63;;
64868;SDS011;51349;52.424;10.840;2023-11-18T18:08:11;8.90;;;6.67;;
64868;SDS011;51349;52.424;10.840;2023-11-18T18:13:14;8.97;;;6.50;;
64868;SDS011;51349;52.424;10.840;2023-11-18T18:18:15;8.70;;;6.77;;
64868;SDS011;51349;52.424;10.840;2023-11-18T18:23:16;7.60;;;5.83;;
64868;SDS011;51349;52.424;10.840;2023-11-18T18:28:16;6.93;;;5.40;;
64868;SDS011;51349;52.424;10.840;2023-11-18T18:33:17;8.17;;;7.27;;
64868;SDS011;51349;52.424;10.840;2023-11-18T18:38:18;8.40;;;5.60;;
64868;SDS011;51349;52.424;10.840;2023-11-18T18:43:19;38.87;;;20.83;;
64868;SDS011;51349;52.424;10.840;2023-11-18T18:48:20;11.50;;;8.40;;
64868;SDS011;51349;52.424;10.840;2023-11-18T18:53:21;13.67;;;8.07;;
64868;SDS011;51349;52.424;10.840;2023-11-18T18:58:22;7.43;;;5.70;;
64868;SDS011;51349;52.424;10.840;2023-11-18T19:03:23;8.33;;;6.87;;
64868;SDS011;51349;52.424;10.840;2023-11-18T19:08:23;10.40;;;7.90;;
64868;SDS011;51349;52.424;10.840;2023-11-18T19:13:26;12.73;;;8.40;;
64868;SDS011;51349;52.424;10.840;2023-11-18T19:18:26;8.37;;;6.60;;
64868;SDS011;51349;52.424;10.840;2023-11-18T19:23:27;8.17;;;5.83;;
64868;SDS011;51349;52.424;10.840;2023-11-18T19:28:28;7.53;;;6.20;;
64868;SDS011;51349;52.424;10.840;2023-11-18T19:33:28;7.30;;;6.23;;
64868;SDS011;51349;52.424;10.840;2023-11-18T19:38:29;6.97;;;6.27;;
64868;SDS011;51349;52.424;10.840;2023-11-18T19:43:30;13.03;;;9.17;;
64868;SDS011;51349;52.424;10.840;2023-11-18T19:48:30;8.30;;;5.80;;
64868;SDS011;51349;52.424;10.840;2023-11-18T19:53:33;6.97;;;6.27;;
64868;SDS011;51349;52.424;10.840;2023-11-18T19:58:34;10.53;;;8.57;;
64868;SDS011;51349;52.424;10.840;2023-11-18T20:03:35;7.77;;;6.17;;
64868;SDS011;51349;52.424;10.840;2023-11-18T20:08:35;6.07;;;5.50;;
64868;SDS011;51349;52.424;10.840;2023-11-18T20:13:36;6.40;;;5.80;;
64868;SDS011;51349;52.424;10.840;2023-11-18T20:18:37;8.53;;;6.30;;
64868;SDS011;51349;52.424;10.840;2023-11-18T20:23:38;8.47;;;6.73;;
64868;SDS011;51349;52.424;10.840;2023-11-18T20:28:38;5.70;;;5.13;;
64868;SDS011;51349;52.424;10.840;2023-11-18T20:33:39;5.57;;;4.93;;
64868;SDS011;51349;52.424;10.840;2023-11-18T20:38:40;4.90;;;4.30;;
64868;SDS011;51349;52.424;10.840;2023-11-18T20:43:43;5.83;;;5.23;;
64868;SDS011;51349;52.424;10.840;2023-11-18T20:48:46;6.03;;;5.43;;
64868;SDS011;51349;52.424;10.840;2023-11-18T20:53:47;6.23;;;5.73;;
64868;SDS011;51349;52.424;10.840;2023-11-18T20:58:48;3.10;;;2.80;;
64868;SDS011;51349;52.424;10.840;2023-11-18T21:03:50;4.37;;;3.97;;
64868;SDS011;51349;52.424;10.840;2023-11-18T21:08:51;2.60;;;2.40;;
64868;SDS011;51349;52.424;10.840;2023-11-18T21:13:51;3.33;;;3.07;;
64868;SDS011;51349;52.424;10.840;2023-11-18T21:18:53;4.57;;;2.90;;
64868;SDS011;51349;52.424;10.840;2023-11-18T21:23:54;2.80;;;2.60;;
64868;SDS011;51349;52.424;10.840;2023-11-18T21:28:55;1.93;;;1.83;;
64868;SDS011;51349;52.424;10.840;2023-11-18T21:33:56;2.33;;;1.90;;
64868;SDS011;51349;52.424;10.840;2023-11-18T21:38:58;1.67;;;1.57;;
64868;SDS011;51349;52.424;10.840;2023-11-18T21:43:59;2.47;;;2.20;;
64868;SDS011;51349;52.424;10.840;2023-11-18T21:49:04;2.10;;;1.97;;
64868;SDS011;51349;52.424;10.840;2023-11-18T21:54:09;2.13;;;1.97;;
64868;SDS011;51349;52.424;10.840;2023-11-18T21:59:10;2.00;;;1.60;;
64868;SDS011;51349;52.424;10.840;2023-11-18T22:04:11;1.93;;;1.83;;
64868;SDS011;51349;52.424;10.840;2023-11-18T22:09:11;1.80;;;1.70;;
64868;SDS011;51349;52.424;10.840;2023-11-18T22:14:12;1.83;;;1.73;;
64868;SDS011;51349;52.424;10.840;2023-11-18T22:19:13;2.63;;;2.40;;
64868;SDS011;51349;52.424;10.840;2023-11-18T22:24:16;1.73;;;1.63;;
64868;SDS011;51349;52.424;10.840;2023-11-18T22:29:18;2.37;;;2.20;;
64868;SDS011;51349;52.424;10.840;2023-11-18T22:34:20;2.07;;;1.97;;
64868;SDS011;51349;52.424;10.840;2023-11-18T22:39:21;2.40;;;2.00;;
64868;SDS011;51349;52.424;10.840;2023-11-18T22:44:23;2.50;;;2.30;;
64868;SDS011;51349;52.424;10.840;2023-11-18T22:49:28;2.33;;;2.10;;
64868;SDS011;51349;52.424;10.840;2023-11-18T22:54:30;2.20;;;2.00;;
64868;SDS011;51349;52.424;10.840;2023-11-18T22:59:30;2.13;;;2.03;;
64868;SDS011;51349;52.424;10.840;2023-11-18T23:04:33;2.00;;;1.90;;
64868;SDS011;51349;52.424;10.840;2023-11-18T23:09:33;1.73;;;1.63;;
64868;SDS011;51349;52.424;10.840;2023-11-18T23:14:34;1.87;;;1.77;;
64868;SDS011;51349;52.424;10.840;2023-11-18T23:19:36;2.00;;;1.90;;
64868;SDS011;51349;52.424;10.840;2023-11-18T23:24:38;1.90;;;1.80;;
64868;SDS011;51349;52.424;10.840;2023-11-18T23:29:38;1.90;;;1.80;;
64868;SDS011;51349;52.424;10.840;2023-11-18T23:34:39;2.30;;;2.20;;
64868;SDS011;51349;52.424;10.840;2023-11-18T23:39:42;2.40;;;1.90;;
64868;SDS011;51349;52.424;10.840;2023-11-18T23:44:45;2.37;;;2.13;;
64868;SDS011;51349;52.424;10.840;2023-11-18T23:49:45;2.20;;;2.00;;
64868;SDS011;51349;52.424;10.840;2023-11-18T23:54:47;2.10;;;2.00;;
64868;SDS011;51349;52.424;10.840;2023-11-18T23:59:50;2.17;;;2.07;;
